createdAt,value
2017-04-24T00:00:26.495Z,4.45
2017-04-24T00:01:25.430Z,4.97
2017-04-24T00:02:23.568Z,5.05
2017-04-24T00:03:21.708Z,4.82
2017-04-24T00:04:19.947Z,4.05
2017-04-24T00:05:18.200Z,4.73
2017-04-24T00:06:16.390Z,5.12
2017-04-24T00:07:15.820Z,5.75
2017-04-24T00:08:13.992Z,4.55
2017-04-24T00:09:12.403Z,4.55
2017-04-24T00:10:10.736Z,4.47
2017-04-24T00:11:08.852Z,6.00
2017-04-24T00:12:07.733Z,4.78
2017-04-24T00:13:06.597Z,6.52
2017-04-24T00:14:04.721Z,6.88
2017-04-24T00:15:02.884Z,6.75
2017-04-24T00:16:01.024Z,6.70
2017-04-24T00:16:59.916Z,8.03
2017-04-24T00:17:58.115Z,6.72
2017-04-24T00:18:56.275Z,8.18
2017-04-24T00:19:54.455Z,7.45
2017-04-24T00:20:52.627Z,7.35
2017-04-24T00:21:50.783Z,6.62
2017-04-24T00:22:49.236Z,6.83
2017-04-24T00:23:47.354Z,7.12
2017-04-24T00:24:46.221Z,7.27
2017-04-24T00:25:45.139Z,6.25
2017-04-24T00:26:43.268Z,5.55
2017-04-24T00:27:42.143Z,4.87
2017-04-24T00:28:41.111Z,4.68
2017-04-24T00:29:39.239Z,4.92
2017-04-24T00:30:37.433Z,4.57
2017-04-24T00:31:35.698Z,4.15
2017-04-24T00:32:34.447Z,3.38
2017-04-24T00:33:32.588Z,2.80
2017-04-24T00:34:30.664Z,3.42
2017-04-24T00:35:28.788Z,3.70
2017-04-24T00:36:26.915Z,4.53
2017-04-24T00:37:25.065Z,3.87
2017-04-24T00:38:23.220Z,4.67
2017-04-24T00:39:21.364Z,4.13
2017-04-24T00:40:19.514Z,3.78
2017-04-24T00:41:18.428Z,3.82
2017-04-24T00:42:16.503Z,4.40
2017-04-24T00:43:14.681Z,3.82
2017-04-24T00:44:12.825Z,3.55
2017-04-24T00:45:10.965Z,3.83
2017-04-24T00:46:09.124Z,4.07
2017-04-24T00:47:07.223Z,4.25
2017-04-24T00:48:05.683Z,3.17
2017-04-24T00:49:03.876Z,3.50
2017-04-24T00:50:02.109Z,3.32
2017-04-24T00:51:00.251Z,3.95
2017-04-24T00:51:58.376Z,3.60
2017-04-24T00:52:56.511Z,5.33
2017-04-24T00:53:54.638Z,3.55
2017-04-24T00:54:52.804Z,3.60
2017-04-24T00:55:50.959Z,3.77
2017-04-24T00:56:49.803Z,4.20
2017-04-24T00:57:47.966Z,3.48
2017-04-24T00:58:46.103Z,3.70
2017-04-24T00:59:44.209Z,4.00
2017-04-24T01:00:43.080Z,3.68
2017-04-24T01:01:41.191Z,3.85
2017-04-24T01:02:39.352Z,3.15
2017-04-24T01:03:37.585Z,3.37
2017-04-24T01:04:36.545Z,3.63
2017-04-24T01:05:34.684Z,3.58
2017-04-24T01:06:32.764Z,3.38
2017-04-24T01:07:31.154Z,3.90
2017-04-24T01:08:29.949Z,2.63
2017-04-24T01:09:28.128Z,3.62
2017-04-24T01:10:26.256Z,3.12
2017-04-24T01:11:25.168Z,4.08
2017-04-24T01:12:23.264Z,4.07
2017-04-24T01:13:21.403Z,3.55
2017-04-24T01:14:19.540Z,4.45
2017-04-24T01:15:18.447Z,4.00
2017-04-24T01:16:16.561Z,3.58
2017-04-24T01:17:14.690Z,3.72
2017-04-24T01:18:12.873Z,4.00
2017-04-24T01:19:11.441Z,3.50
2017-04-24T01:20:10.361Z,3.20
2017-04-24T01:21:09.348Z,3.77
2017-04-24T01:22:07.484Z,3.98
2017-04-24T01:23:06.000Z,4.47
2017-04-24T01:24:04.150Z,3.32
2017-04-24T01:25:02.329Z,3.03
2017-04-24T01:26:00.436Z,3.33
2017-04-24T01:26:58.554Z,3.93
2017-04-24T01:27:57.477Z,4.03
2017-04-24T01:28:55.857Z,3.70
2017-04-24T01:29:53.996Z,4.02
2017-04-24T01:30:52.136Z,3.40
2017-04-24T01:31:50.291Z,3.83
2017-04-24T01:32:48.404Z,3.05
2017-04-24T01:33:46.580Z,3.40
2017-04-24T01:34:44.702Z,2.85
2017-04-24T01:35:42.888Z,3.68
2017-04-24T01:36:41.142Z,4.00
2017-04-24T01:37:39.438Z,3.15
2017-04-24T01:38:38.483Z,3.10
2017-04-24T01:39:36.644Z,3.77
2017-04-24T01:40:34.818Z,3.12
2017-04-24T01:41:33.012Z,3.72
2017-04-24T01:42:31.326Z,4.03
2017-04-24T01:43:29.504Z,3.00
2017-04-24T01:44:28.017Z,4.08
2017-04-24T01:45:26.186Z,3.37
2017-04-24T01:46:24.384Z,3.85
2017-04-24T01:47:22.496Z,4.07
2017-04-24T01:48:20.633Z,4.10
2017-04-24T01:49:18.774Z,3.88
2017-04-24T01:50:17.656Z,3.53
2017-04-24T01:51:16.475Z,3.85
2017-04-24T01:52:14.619Z,3.67
2017-04-24T01:53:13.503Z,3.90
2017-04-24T01:54:11.707Z,3.78
2017-04-24T01:55:10.505Z,3.88
2017-04-24T01:56:09.375Z,3.53
2017-04-24T01:57:07.483Z,4.22
2017-04-24T01:58:05.629Z,3.52
2017-04-24T01:59:03.788Z,3.98
2017-04-24T02:00:02.757Z,4.05
2017-04-24T02:01:01.761Z,3.70
2017-04-24T02:02:00.597Z,4.38
2017-04-24T02:02:58.729Z,3.30
2017-04-24T02:03:56.852Z,4.47
2017-04-24T02:04:55.736Z,3.77
2017-04-24T02:05:53.877Z,3.60
2017-04-24T02:06:52.031Z,4.13
2017-04-24T02:07:50.188Z,4.52
2017-04-24T02:08:48.309Z,3.85
2017-04-24T02:09:46.431Z,3.72
2017-04-24T02:10:44.639Z,3.55
2017-04-24T02:11:42.836Z,4.15
2017-04-24T02:12:41.064Z,3.43
2017-04-24T02:13:39.166Z,3.55
2017-04-24T02:14:37.259Z,3.53
2017-04-24T02:15:35.359Z,3.67
2017-04-24T02:16:33.477Z,3.68
2017-04-24T02:17:31.653Z,3.95
2017-04-24T02:18:30.622Z,4.42
2017-04-24T02:19:29.531Z,4.07
2017-04-24T02:20:28.385Z,3.88
2017-04-24T02:21:26.539Z,4.05
2017-04-24T02:22:24.806Z,3.23
2017-04-24T02:23:22.912Z,3.98
2017-04-24T02:24:21.068Z,3.72
2017-04-24T02:25:20.008Z,4.53
2017-04-24T02:26:18.184Z,3.65
2017-04-24T02:27:16.337Z,4.12
2017-04-24T02:28:14.523Z,3.52
2017-04-24T02:29:12.658Z,4.05
2017-04-24T02:30:10.866Z,4.03
2017-04-24T02:31:09.035Z,3.10
2017-04-24T02:32:07.260Z,3.65
2017-04-24T02:33:05.373Z,3.38
2017-04-24T02:34:03.592Z,3.50
2017-04-24T02:35:01.760Z,3.92
2017-04-24T02:35:59.865Z,4.00
2017-04-24T02:36:58.049Z,4.28
2017-04-24T02:37:56.157Z,3.68
2017-04-24T02:38:54.399Z,3.93
2017-04-24T02:39:52.544Z,4.08
2017-04-24T02:40:50.651Z,3.45
2017-04-24T02:41:48.703Z,3.35
2017-04-24T02:42:46.805Z,2.98
2017-04-24T02:43:44.916Z,3.95
2017-04-24T02:44:43.015Z,3.72
2017-04-24T02:45:41.886Z,3.92
2017-04-24T02:46:40.729Z,3.30
2017-04-24T02:47:38.859Z,4.02
2017-04-24T02:48:37.032Z,3.97
2017-04-24T02:49:35.152Z,3.28
2017-04-24T02:50:34.056Z,3.48
2017-04-24T02:51:32.930Z,3.78
2017-04-24T02:52:31.850Z,3.67
2017-04-24T02:53:30.776Z,3.80
2017-04-24T02:54:29.603Z,3.63
2017-04-24T02:55:27.764Z,3.30
2017-04-24T02:56:25.887Z,3.08
2017-04-24T02:57:23.956Z,3.60
2017-04-24T02:58:22.106Z,3.25
2017-04-24T02:59:21.003Z,3.12
2017-04-24T03:00:19.899Z,3.22
2017-04-24T03:01:18.056Z,3.98
2017-04-24T03:02:16.205Z,4.03
2017-04-24T03:03:14.341Z,3.62
2017-04-24T03:04:12.483Z,3.57
2017-04-24T03:05:10.641Z,3.05
2017-04-24T03:06:08.744Z,2.78
2017-04-24T03:07:07.655Z,3.73
2017-04-24T03:08:05.845Z,3.13
2017-04-24T03:09:04.988Z,3.20
2017-04-24T03:10:03.856Z,3.57
2017-04-24T03:11:02.081Z,3.53
2017-04-24T03:12:00.272Z,3.55
2017-04-24T03:12:58.400Z,3.70
2017-04-24T03:13:56.552Z,3.30
2017-04-24T03:14:54.705Z,4.28
2017-04-24T03:15:53.680Z,3.40
2017-04-24T03:16:51.839Z,3.73
2017-04-24T03:17:50.668Z,4.65
2017-04-24T03:18:48.802Z,4.17
2017-04-24T03:19:46.951Z,3.33
2017-04-24T03:20:45.931Z,3.72
2017-04-24T03:21:44.756Z,3.47
2017-04-24T03:22:42.901Z,3.15
2017-04-24T03:23:41.044Z,2.90
2017-04-24T03:24:39.911Z,3.38
2017-04-24T03:25:38.021Z,3.68
2017-04-24T03:26:36.140Z,3.57
2017-04-24T03:27:34.984Z,4.10
2017-04-24T03:28:33.128Z,3.47
2017-04-24T03:29:31.248Z,3.25
2017-04-24T03:30:30.102Z,3.57
2017-04-24T03:31:28.264Z,3.35
2017-04-24T03:32:26.352Z,3.10
2017-04-24T03:33:24.488Z,3.25
2017-04-24T03:34:22.613Z,3.68
2017-04-24T03:35:20.743Z,3.50
2017-04-24T03:36:19.579Z,3.70
2017-04-24T03:37:17.632Z,4.25
2017-04-24T03:38:15.821Z,3.63
2017-04-24T03:39:13.960Z,3.98
2017-04-24T03:40:12.436Z,5.27
2017-04-24T03:41:10.573Z,3.53
2017-04-24T03:42:08.796Z,3.15
2017-04-24T03:43:07.697Z,3.17
2017-04-24T03:44:06.827Z,3.48
2017-04-24T03:45:04.922Z,3.67
2017-04-24T03:46:03.116Z,3.58
2017-04-24T03:47:01.242Z,3.60
2017-04-24T03:47:59.926Z,3.82
2017-04-24T03:48:58.061Z,4.15
2017-04-24T03:49:56.233Z,3.33
2017-04-24T03:50:54.353Z,4.50
2017-04-24T03:51:52.470Z,4.05
2017-04-24T03:52:50.584Z,4.05
2017-04-24T03:53:48.679Z,4.45
2017-04-24T03:54:46.857Z,4.60
2017-04-24T03:55:45.003Z,4.37
2017-04-24T03:56:43.157Z,4.28
2017-04-24T03:57:41.274Z,4.85
2017-04-24T03:58:40.108Z,4.68
2017-04-24T03:59:38.192Z,4.30
2017-04-24T04:00:36.391Z,4.43
2017-04-24T04:01:34.567Z,4.15
2017-04-24T04:02:32.672Z,5.50
2017-04-24T04:03:30.825Z,4.08
2017-04-24T04:04:28.990Z,4.28
2017-04-24T04:05:27.138Z,4.67
2017-04-24T04:06:25.319Z,5.08
2017-04-24T04:07:23.409Z,4.02
2017-04-24T04:08:21.564Z,5.28
2017-04-24T04:09:19.676Z,4.70
2017-04-24T04:10:17.794Z,4.22
2017-04-24T04:11:15.931Z,4.17
2017-04-24T04:12:14.101Z,4.55
2017-04-24T04:13:12.233Z,4.53
2017-04-24T04:14:10.376Z,4.30
2017-04-24T04:15:08.560Z,4.28
2017-04-24T04:16:06.688Z,4.55
2017-04-24T04:17:07.978Z,6.00
2017-04-24T04:18:06.096Z,4.93
2017-04-24T04:19:04.279Z,3.93
2017-04-24T04:20:02.421Z,4.23
2017-04-24T04:21:00.620Z,3.82
2017-04-24T04:21:58.746Z,4.65
2017-04-24T04:22:57.817Z,4.93
2017-04-24T04:23:56.419Z,4.80
2017-04-24T04:24:55.291Z,5.03
2017-04-24T04:25:54.243Z,4.52
2017-04-24T04:26:52.380Z,5.13
2017-04-24T04:27:50.485Z,4.50
2017-04-24T04:28:48.597Z,4.65
2017-04-24T04:29:46.780Z,4.07
2017-04-24T04:30:44.883Z,4.75
2017-04-24T04:31:43.744Z,5.18
2017-04-24T04:32:41.922Z,4.52
2017-04-24T04:33:40.787Z,5.00
2017-04-24T04:34:38.904Z,5.23
2017-04-24T04:35:37.124Z,5.22
2017-04-24T04:36:35.232Z,5.30
2017-04-24T04:37:33.318Z,5.38
2017-04-24T04:38:31.502Z,6.30
2017-04-24T04:39:29.596Z,4.82
2017-04-24T04:40:27.736Z,6.72
2017-04-24T04:41:25.870Z,4.85
2017-04-24T04:42:23.980Z,4.93
2017-04-24T04:43:22.068Z,5.32
2017-04-24T04:44:20.245Z,5.33
2017-04-24T04:45:18.387Z,5.10
2017-04-24T04:46:16.472Z,4.68
2017-04-24T04:47:14.607Z,5.58
2017-04-24T04:48:13.445Z,5.10
2017-04-24T04:49:11.587Z,5.62
2017-04-24T04:50:09.773Z,5.45
2017-04-24T04:51:07.904Z,4.83
2017-04-24T04:52:06.060Z,4.88
2017-04-24T04:53:04.206Z,5.05
2017-04-24T04:54:02.352Z,4.93
2017-04-24T04:55:01.223Z,4.37
2017-04-24T04:55:59.464Z,4.70
2017-04-24T04:56:57.603Z,4.82
2017-04-24T04:57:56.010Z,4.83
2017-04-24T04:58:54.180Z,4.95
2017-04-24T04:59:52.273Z,5.50
2017-04-24T05:00:51.168Z,5.55
2017-04-24T05:01:49.280Z,4.95
2017-04-24T05:02:48.203Z,4.25
2017-04-24T05:03:46.327Z,4.35
2017-04-24T05:04:44.432Z,4.55
2017-04-24T05:05:42.569Z,4.52
2017-04-24T05:06:41.503Z,4.68
2017-04-24T05:07:39.654Z,4.10
2017-04-24T05:08:37.738Z,4.75
2017-04-24T05:09:36.019Z,4.87
2017-04-24T05:10:34.215Z,4.82
2017-04-24T05:11:33.127Z,4.88
2017-04-24T05:12:31.451Z,4.75
2017-04-24T05:13:30.307Z,4.57
2017-04-24T05:14:28.462Z,4.68
2017-04-24T05:15:26.577Z,4.58
2017-04-24T05:16:25.464Z,4.83
2017-04-24T05:17:23.610Z,4.53
2017-04-24T05:18:21.714Z,4.73
2017-04-24T05:19:19.879Z,5.15
2017-04-24T05:20:18.036Z,4.92
2017-04-24T05:21:16.199Z,4.90
2017-04-24T05:22:14.404Z,5.72
2017-04-24T05:23:12.504Z,4.97
2017-04-24T05:24:11.346Z,4.08
2017-04-24T05:25:09.490Z,4.75
2017-04-24T05:26:07.628Z,4.40
2017-04-24T05:27:05.807Z,4.60
2017-04-24T05:28:03.947Z,4.62
2017-04-24T05:29:02.107Z,4.22
2017-04-24T05:30:00.245Z,4.28
2017-04-24T05:30:58.988Z,5.33
2017-04-24T05:31:57.076Z,4.80
2017-04-24T05:32:55.198Z,4.55
2017-04-24T05:33:53.355Z,5.00
2017-04-24T05:34:51.565Z,5.17
2017-04-24T05:35:49.680Z,4.42
2017-04-24T05:36:47.851Z,4.78
2017-04-24T05:37:45.999Z,4.02
2017-04-24T05:38:44.137Z,5.17
2017-04-24T05:39:42.358Z,4.92
2017-04-24T05:40:40.528Z,5.08
2017-04-24T05:41:39.420Z,4.47
2017-04-24T05:42:37.608Z,4.80
2017-04-24T05:43:35.717Z,4.38
2017-04-24T05:44:33.873Z,4.32
2017-04-24T05:45:32.070Z,3.97
2017-04-24T05:46:30.247Z,4.88
2017-04-24T05:47:28.465Z,4.12
2017-04-24T05:48:26.684Z,4.13
2017-04-24T05:49:25.608Z,4.45
2017-04-24T05:50:23.724Z,4.12
2017-04-24T05:51:23.237Z,4.48
2017-04-24T05:52:22.175Z,4.32
2017-04-24T05:53:20.367Z,5.18
2017-04-24T05:54:18.519Z,4.70
2017-04-24T05:55:16.655Z,3.68
2017-04-24T05:56:14.836Z,4.38
2017-04-24T05:57:12.998Z,4.77
2017-04-24T05:58:11.177Z,4.38
2017-04-24T05:59:09.413Z,4.62
2017-04-24T06:00:07.716Z,3.73
2017-04-24T06:01:06.657Z,4.00
2017-04-24T06:02:04.842Z,4.07
2017-04-24T06:03:03.081Z,4.53
2017-04-24T06:04:01.233Z,4.00
2017-04-24T06:04:59.374Z,3.80
2017-04-24T06:05:57.574Z,4.08
2017-04-24T06:06:55.877Z,3.93
2017-04-24T06:07:54.000Z,4.22
2017-04-24T06:08:52.165Z,3.40
2017-04-24T06:09:50.882Z,4.57
2017-04-24T06:10:49.036Z,3.75
2017-04-24T06:11:47.197Z,4.08
2017-04-24T06:12:45.386Z,4.28
2017-04-24T06:13:44.333Z,3.88
2017-04-24T06:14:42.524Z,4.68
2017-04-24T06:15:40.687Z,3.83
2017-04-24T06:16:38.845Z,4.37
2017-04-24T06:17:36.977Z,3.42
2017-04-24T06:18:35.152Z,3.65
2017-04-24T06:19:33.305Z,3.90
2017-04-24T06:20:31.546Z,3.95
2017-04-24T06:21:29.788Z,4.18
2017-04-24T06:22:27.953Z,4.00
2017-04-24T06:23:26.129Z,4.08
2017-04-24T06:24:24.961Z,3.22
2017-04-24T06:25:23.090Z,4.12
2017-04-24T06:26:22.583Z,4.50
2017-04-24T06:27:20.739Z,3.83
2017-04-24T06:28:18.906Z,3.97
2017-04-24T06:29:17.048Z,4.02
2017-04-24T06:30:15.972Z,4.13
2017-04-24T06:31:14.237Z,4.12
2017-04-24T06:32:12.428Z,4.60
2017-04-24T06:33:10.624Z,4.37
2017-04-24T06:34:08.837Z,3.68
2017-04-24T06:35:07.029Z,3.83
2017-04-24T06:36:05.216Z,4.20
2017-04-24T06:37:03.398Z,3.68
2017-04-24T06:38:02.245Z,3.80
2017-04-24T06:39:00.419Z,3.68
2017-04-24T06:39:58.564Z,3.92
2017-04-24T06:40:56.743Z,3.63
2017-04-24T06:41:55.678Z,4.52
2017-04-24T06:42:53.843Z,3.55
2017-04-24T06:43:51.989Z,3.95
2017-04-24T06:44:50.160Z,3.88
2017-04-24T06:45:48.358Z,4.07
2017-04-24T06:46:46.569Z,3.60
2017-04-24T06:47:45.465Z,4.13
2017-04-24T06:48:43.685Z,3.97
2017-04-24T06:49:41.848Z,3.97
2017-04-24T06:50:40.590Z,3.45
2017-04-24T06:51:39.573Z,3.90
2017-04-24T06:52:37.692Z,3.53
2017-04-24T06:53:36.629Z,3.92
2017-04-24T06:54:34.809Z,3.93
2017-04-24T06:55:32.975Z,4.25
2017-04-24T06:56:31.100Z,3.33
2017-04-24T06:57:29.279Z,4.65
2017-04-24T06:58:27.405Z,4.33
2017-04-24T06:59:26.372Z,3.90
2017-04-24T07:00:24.613Z,3.23
2017-04-24T07:01:22.785Z,3.65
2017-04-24T07:02:21.760Z,3.80
2017-04-24T07:03:19.925Z,4.62
2017-04-24T07:04:18.093Z,4.33
2017-04-24T07:05:16.265Z,3.93
2017-04-24T07:06:14.525Z,5.92
2017-04-24T07:07:12.699Z,4.70
2017-04-24T07:08:11.502Z,4.23
2017-04-24T07:09:09.670Z,4.12
2017-04-24T07:10:07.931Z,4.22
2017-04-24T07:11:06.156Z,4.60
2017-04-24T07:12:04.995Z,3.60
2017-04-24T07:13:03.208Z,3.45
2017-04-24T07:14:02.157Z,4.10
2017-04-24T07:15:00.354Z,3.90
2017-04-24T07:15:58.509Z,3.90
2017-04-24T07:16:56.701Z,4.22
2017-04-24T07:17:55.609Z,3.85
2017-04-24T07:18:53.799Z,3.87
2017-04-24T07:19:51.944Z,4.52
2017-04-24T07:20:50.118Z,4.97
2017-04-24T07:21:48.337Z,3.97
2017-04-24T07:22:46.581Z,4.07
2017-04-24T07:23:44.762Z,4.23
2017-04-24T07:24:42.974Z,4.10
2017-04-24T07:25:41.174Z,4.83
2017-04-24T07:26:40.101Z,4.27
2017-04-24T07:27:38.269Z,4.80
2017-04-24T07:28:36.471Z,4.40
2017-04-24T07:29:34.607Z,4.03
2017-04-24T07:30:32.871Z,3.68
2017-04-24T07:31:31.037Z,3.57
2017-04-24T07:32:29.214Z,4.45
2017-04-24T07:33:27.408Z,3.52
2017-04-24T07:34:25.584Z,3.95
2017-04-24T07:35:23.773Z,3.80
2017-04-24T07:36:21.958Z,4.15
2017-04-24T07:37:20.192Z,4.75
2017-04-24T07:38:19.412Z,4.65
2017-04-24T07:39:17.608Z,4.17
2017-04-24T07:40:15.820Z,4.18
2017-04-24T07:41:13.972Z,4.32
2017-04-24T07:42:12.952Z,4.23
2017-04-24T07:43:11.860Z,4.83
2017-04-24T07:44:10.089Z,4.12
2017-04-24T07:45:08.247Z,4.48
2017-04-24T07:46:07.163Z,4.12
2017-04-24T07:47:05.362Z,3.92
2017-04-24T07:48:03.542Z,4.42
2017-04-24T07:49:01.768Z,4.10
2017-04-24T07:49:59.908Z,4.07
2017-04-24T07:50:58.100Z,4.23
2017-04-24T07:51:56.240Z,3.63
2017-04-24T07:52:55.141Z,4.30
2017-04-24T07:53:53.300Z,4.22
2017-04-24T07:54:51.467Z,4.12
2017-04-24T07:55:49.627Z,4.05
2017-04-24T07:56:47.847Z,4.52
2017-04-24T07:57:46.005Z,4.27
2017-04-24T07:58:44.130Z,4.45
2017-04-24T07:59:42.332Z,4.37
2017-04-24T08:00:40.702Z,4.27
2017-04-24T08:01:39.656Z,4.60
2017-04-24T08:02:37.886Z,4.28
2017-04-24T08:03:36.012Z,4.07
2017-04-24T08:04:34.165Z,4.08
2017-04-24T08:05:32.340Z,4.33
2017-04-24T08:06:31.298Z,3.90
2017-04-24T08:07:29.501Z,3.93
2017-04-24T08:08:27.730Z,4.65
2017-04-24T08:09:25.941Z,4.22
2017-04-24T08:10:24.901Z,4.27
2017-04-24T08:11:23.076Z,4.00
2017-04-24T08:12:21.225Z,3.82
2017-04-24T08:13:19.475Z,4.33
2017-04-24T08:14:17.692Z,3.88
2017-04-24T08:15:15.887Z,4.53
2017-04-24T08:16:14.092Z,3.78
2017-04-24T08:17:12.272Z,3.82
2017-04-24T08:18:10.460Z,4.10
2017-04-24T08:19:09.398Z,3.95
2017-04-24T08:20:07.536Z,4.72
2017-04-24T08:21:05.700Z,3.88
2017-04-24T08:22:03.887Z,4.55
2017-04-24T08:23:02.024Z,5.37
2017-04-24T08:24:00.137Z,4.15
2017-04-24T08:24:59.089Z,4.63
2017-04-24T08:25:57.255Z,4.02
2017-04-24T08:26:55.421Z,4.82
2017-04-24T08:27:53.626Z,4.30
2017-04-24T08:28:52.617Z,4.23
2017-04-24T08:29:50.783Z,4.33
2017-04-24T08:30:48.980Z,4.60
2017-04-24T08:31:47.165Z,4.10
2017-04-24T08:32:45.356Z,4.32
2017-04-24T08:33:43.545Z,4.40
2017-04-24T08:34:41.766Z,4.85
2017-04-24T08:35:40.027Z,4.82
2017-04-24T08:36:38.130Z,5.15
2017-04-24T08:37:37.093Z,4.67
2017-04-24T08:38:36.031Z,5.18
2017-04-24T08:39:34.232Z,5.75
2017-04-24T08:40:32.459Z,5.37
2017-04-24T08:41:30.683Z,5.40
2017-04-24T08:42:28.892Z,5.45
2017-04-24T08:43:27.025Z,5.73
2017-04-24T08:44:25.160Z,5.75
2017-04-24T08:45:24.254Z,5.75
2017-04-24T08:46:23.201Z,5.52
2017-04-24T08:47:21.969Z,6.37
2017-04-24T08:48:20.170Z,6.47
2017-04-24T08:49:18.990Z,6.83
2017-04-24T08:50:17.189Z,6.80
2017-04-24T08:51:15.355Z,5.98
2017-04-24T08:52:13.613Z,6.47
2017-04-24T08:53:11.807Z,6.60
2017-04-24T08:54:10.706Z,6.35
2017-04-24T08:55:08.937Z,7.20
2017-04-24T08:56:07.090Z,6.35
2017-04-24T08:57:05.323Z,6.50
2017-04-24T08:58:03.552Z,6.32
2017-04-24T08:59:02.479Z,6.93
2017-04-24T09:00:00.685Z,6.30
2017-04-24T09:00:58.863Z,7.03
2017-04-24T09:01:57.781Z,7.75
2017-04-24T09:02:55.961Z,6.95
2017-04-24T09:03:54.116Z,7.45
2017-04-24T09:04:52.348Z,7.52
2017-04-24T09:05:50.549Z,7.28
2017-04-24T09:06:48.667Z,7.88
2017-04-24T09:07:47.656Z,7.62
2017-04-24T09:08:45.831Z,6.85
2017-04-24T09:09:43.976Z,8.08
2017-04-24T09:10:42.888Z,7.38
2017-04-24T09:11:41.088Z,6.08
2017-04-24T09:12:39.248Z,8.15
2017-04-24T09:13:37.447Z,7.93
2017-04-24T09:14:35.619Z,7.15
2017-04-24T09:15:33.772Z,8.57
2017-04-24T09:16:31.950Z,7.47
2017-04-24T09:17:30.891Z,8.08
2017-04-24T09:18:29.068Z,7.48
2017-04-24T09:19:27.185Z,8.37
2017-04-24T09:20:25.387Z,7.92
2017-04-24T09:21:24.203Z,8.22
2017-04-24T09:22:22.432Z,8.05
2017-04-24T09:23:20.631Z,9.28
2017-04-24T09:24:19.567Z,8.50
2017-04-24T09:25:17.731Z,8.75
2017-04-24T09:26:15.889Z,8.65
2017-04-24T09:27:14.127Z,8.25
2017-04-24T09:28:12.292Z,7.92
2017-04-24T09:29:10.420Z,8.42
2017-04-24T09:30:09.317Z,8.02
2017-04-24T09:31:08.371Z,8.23
2017-04-24T09:32:06.535Z,8.70
2017-04-24T09:33:04.669Z,8.02
2017-04-24T09:34:02.832Z,8.78
2017-04-24T09:35:00.995Z,9.13
2017-04-24T09:35:59.142Z,8.93
2017-04-24T09:36:57.304Z,8.53
2017-04-24T09:37:55.520Z,8.33
2017-04-24T09:38:53.670Z,9.55
2017-04-24T09:39:51.799Z,8.40
2017-04-24T09:40:50.001Z,9.07
2017-04-24T09:41:48.196Z,8.47
2017-04-24T09:42:46.422Z,9.58
2017-04-24T09:43:45.360Z,9.13
2017-04-24T09:44:43.533Z,9.80
2017-04-24T09:45:41.709Z,9.25
2017-04-24T09:46:39.983Z,8.15
2017-04-24T09:47:38.184Z,9.83
2017-04-24T09:48:36.459Z,9.77
2017-04-24T09:49:34.625Z,9.40
2017-04-24T09:50:32.874Z,10.18
2017-04-24T09:51:31.123Z,8.32
2017-04-24T09:52:29.264Z,9.63
2017-04-24T09:53:27.504Z,9.63
2017-04-24T09:54:25.663Z,9.53
2017-04-24T09:55:24.561Z,10.77
2017-04-24T09:56:23.361Z,8.60
2017-04-24T09:57:21.525Z,10.22
2017-04-24T09:58:19.765Z,9.53
2017-04-24T09:59:17.984Z,10.15
2017-04-24T10:00:16.245Z,8.88
2017-04-24T10:01:14.436Z,10.00
2017-04-24T10:02:13.240Z,10.57
2017-04-24T10:03:11.424Z,9.03
2017-04-24T10:04:09.591Z,9.40
2017-04-24T10:05:07.892Z,10.60
2017-04-24T10:06:06.095Z,10.47
2017-04-24T10:07:04.328Z,10.03
2017-04-24T10:08:02.923Z,9.70
2017-04-24T10:09:01.907Z,10.27
2017-04-24T10:10:00.882Z,8.78
2017-04-24T10:10:59.011Z,10.05
2017-04-24T10:11:57.296Z,9.30
2017-04-24T10:12:55.453Z,10.55
2017-04-24T10:13:53.604Z,10.07
2017-04-24T10:14:51.817Z,10.22
2017-04-24T10:15:50.012Z,11.93
2017-04-24T10:16:48.175Z,9.47
2017-04-24T10:17:46.348Z,9.82
2017-04-24T10:18:44.898Z,11.02
2017-04-24T10:19:43.074Z,10.62
2017-04-24T10:20:41.248Z,10.93
2017-04-24T10:21:39.377Z,10.95
2017-04-24T10:22:37.688Z,11.27
2017-04-24T10:23:35.904Z,10.68
2017-04-24T10:24:34.096Z,10.52
2017-04-24T10:25:32.237Z,10.53
2017-04-24T10:26:30.465Z,11.63
2017-04-24T10:27:28.634Z,11.43
2017-04-24T10:28:26.862Z,11.12
2017-04-24T10:29:25.041Z,11.10
2017-04-24T10:30:23.214Z,11.68
2017-04-24T10:31:21.416Z,10.05
2017-04-24T10:32:20.367Z,10.90
2017-04-24T10:33:18.594Z,11.17
2017-04-24T10:34:16.902Z,11.87
2017-04-24T10:35:15.075Z,10.70
2017-04-24T10:36:13.281Z,10.57
2017-04-24T10:37:11.496Z,10.75
2017-04-24T10:38:09.745Z,10.35
2017-04-24T10:39:07.938Z,11.27
2017-04-24T10:40:06.880Z,10.83
2017-04-24T10:41:05.047Z,10.53
2017-04-24T10:42:03.347Z,11.02
2017-04-24T10:43:01.605Z,11.38
2017-04-24T10:43:59.793Z,11.07
2017-04-24T10:44:57.979Z,10.82
2017-04-24T10:45:56.276Z,11.32
2017-04-24T10:46:54.432Z,12.02
2017-04-24T10:47:52.584Z,10.45
2017-04-24T10:48:51.502Z,11.32
2017-04-24T10:49:49.651Z,11.13
2017-04-24T10:50:47.816Z,11.43
2017-04-24T10:51:46.102Z,10.95
2017-04-24T10:52:44.319Z,12.32
2017-04-24T10:53:42.539Z,11.15
2017-04-24T10:54:40.763Z,11.90
2017-04-24T10:55:38.963Z,11.57
2017-04-24T10:56:37.965Z,11.32
2017-04-24T10:57:36.070Z,12.20
2017-04-24T10:58:34.262Z,12.27
2017-04-24T10:59:32.642Z,12.77
2017-04-24T11:00:30.824Z,12.05
2017-04-24T11:01:29.035Z,12.82
2017-04-24T11:02:27.276Z,11.37
2017-04-24T11:03:25.444Z,11.32
2017-04-24T11:04:24.956Z,12.23
2017-04-24T11:05:23.117Z,12.27
2017-04-24T11:06:21.531Z,11.85
2017-04-24T11:07:20.470Z,11.13
2017-04-24T11:08:19.524Z,10.65
2017-04-24T11:09:18.441Z,12.37
2017-04-24T11:10:16.585Z,12.25
2017-04-24T11:11:14.800Z,12.77
2017-04-24T11:12:12.996Z,12.43
2017-04-24T11:13:11.923Z,11.28
2017-04-24T11:14:10.150Z,11.02
2017-04-24T11:15:08.936Z,12.27
2017-04-24T11:16:07.263Z,11.70
2017-04-24T11:17:05.454Z,11.77
2017-04-24T11:18:04.684Z,12.27
2017-04-24T11:19:02.900Z,12.03
2017-04-24T11:20:01.084Z,11.75
2017-04-24T11:20:59.979Z,11.87
2017-04-24T11:21:58.496Z,11.90
2017-04-24T11:22:56.882Z,12.23
2017-04-24T11:23:55.727Z,12.78
2017-04-24T11:24:54.455Z,12.90
2017-04-24T11:25:52.645Z,13.15
2017-04-24T11:26:50.916Z,12.62
2017-04-24T11:27:49.113Z,12.53
2017-04-24T11:28:47.314Z,13.37
2017-04-24T11:29:45.455Z,13.50
2017-04-24T11:30:43.613Z,11.92
2017-04-24T11:31:41.740Z,12.67
2017-04-24T11:32:39.895Z,13.32
2017-04-24T11:33:38.098Z,11.40
2017-04-24T11:34:36.287Z,12.30
2017-04-24T11:35:34.491Z,13.58
2017-04-24T11:36:32.696Z,12.08
2017-04-24T11:37:30.928Z,12.87
2017-04-24T11:38:29.120Z,13.33
2017-04-24T11:39:27.360Z,12.23
2017-04-24T11:40:26.081Z,12.73
2017-04-24T11:41:24.315Z,12.27
2017-04-24T11:42:22.455Z,12.72
2017-04-24T11:43:20.626Z,12.43
2017-04-24T11:44:18.800Z,11.50
2017-04-24T11:45:16.985Z,12.02
2017-04-24T11:46:15.187Z,12.38
2017-04-24T11:47:14.113Z,12.60
2017-04-24T11:48:12.292Z,13.75
2017-04-24T11:49:11.282Z,14.33
2017-04-24T11:50:09.536Z,14.75
2017-04-24T11:51:07.726Z,13.25
2017-04-24T11:52:06.705Z,13.85
2017-04-24T11:53:04.880Z,13.23
2017-04-24T11:54:03.884Z,14.55
2017-04-24T11:55:02.079Z,15.13
2017-04-24T11:56:00.277Z,14.73
2017-04-24T11:56:58.407Z,14.33
2017-04-24T11:57:56.590Z,14.02
2017-04-24T11:58:54.866Z,14.58
2017-04-24T11:59:53.033Z,12.70
2017-04-24T12:00:51.228Z,15.63
2017-04-24T12:01:49.386Z,16.33
2017-04-24T12:02:47.570Z,14.62
2017-04-24T12:03:45.765Z,13.92
2017-04-24T12:04:43.955Z,13.60
2017-04-24T12:05:42.159Z,12.95
2017-04-24T12:06:40.485Z,12.65
2017-04-24T12:07:38.673Z,12.38
2017-04-24T12:08:37.123Z,12.93
2017-04-24T12:09:36.207Z,13.93
2017-04-24T12:10:34.356Z,13.18
2017-04-24T12:11:32.520Z,13.35
2017-04-24T12:12:30.727Z,14.47
2017-04-24T12:13:28.929Z,15.23
2017-04-24T12:14:27.145Z,15.72
2017-04-24T12:15:25.317Z,16.33
2017-04-24T12:16:24.226Z,14.73
2017-04-24T12:17:22.482Z,15.43
2017-04-24T12:18:21.421Z,14.60
2017-04-24T12:19:19.620Z,16.10
2017-04-24T12:20:17.851Z,15.17
2017-04-24T12:21:15.976Z,15.28
2017-04-24T12:22:14.239Z,15.12
2017-04-24T12:23:12.681Z,15.80
2017-04-24T12:24:11.596Z,15.48
2017-04-24T12:25:09.852Z,16.22
2017-04-24T12:26:08.077Z,15.83
2017-04-24T12:27:06.239Z,16.68
2017-04-24T12:28:05.191Z,17.07
2017-04-24T12:29:03.412Z,17.30
2017-04-24T12:30:01.573Z,16.55
2017-04-24T12:30:59.982Z,16.52
2017-04-24T12:32:02.079Z,15.52
2017-04-24T12:33:01.036Z,14.80
2017-04-24T12:33:59.285Z,16.77
2017-04-24T12:34:57.459Z,15.15
2017-04-24T12:35:55.640Z,15.97
2017-04-24T12:36:53.848Z,16.03
2017-04-24T12:37:52.220Z,17.08
2017-04-24T12:38:50.391Z,16.30
2017-04-24T12:39:48.577Z,15.22
2017-04-24T12:40:46.742Z,16.50
2017-04-24T12:41:44.945Z,16.97
2017-04-24T12:42:43.142Z,17.05
2017-04-24T12:43:42.035Z,16.70
2017-04-24T12:44:40.249Z,16.93
2017-04-24T12:45:38.504Z,16.80
2017-04-24T12:46:36.667Z,16.17
2017-04-24T12:47:35.257Z,17.28
2017-04-24T12:48:34.184Z,16.90
2017-04-24T12:49:32.423Z,16.63
2017-04-24T12:50:32.063Z,17.12